« 定点 伏木・富山空港・東八尾 2024/4/7 sun | トップページ | 定点 富山空港他 2024/4/13 sat »

2024/04/11

定点 富山空港 2024/4/11 thu

一昨日8日は、春の嵐で、一気に冬に戻ったような寒さ。昨日から青空が戻りましたが、北風で肌寒い。桜は満開を過ぎた模様。

RJNT 110100Z 18008KT 130V210 CAVOK 18/05 Q1025

20240411_rjnt_00ja173b

JA173B← BK117C-2 THK 富山県ドクターヘリ

南砺方面は空港上空を通過していきます。

20240411_rjnt_01tsurugi

空港公園のサクラも見ごろ。山は一気に青くなってきた。

20240411_rjnt_02ja86an

RWY20で進入して来ましたが、北風が強いのでサークリング

20240411_rjnt_03ja86an
20240411_rjnt_04ja86an

ANA315 RJTT-RJNT JA86AN B737-881

RJNT 110200Z 36010KT CAVOK 18/06 Q1025

20240411_rjnt_05ja86an

赤木蓮は満開

20240411_rjnt_06ja21dk

おや、お客さん

20240411_rjnt_07ja21dk

JA21DK↓ H135 北海道警察「ぎんれい2号」

20240411_rjnt_08ja6502

JA6502↓ AS350B3 AKF オートロ

20240411_rjnt_09ja21dk

JA21DK↑ 給油をして出発です。耐空明けかな。

20240411_rjnt_10ja86an
20240411_rjnt_11ja86an

ANA316 RJNT-RJTT JA86AN B737-881

RJNT 110300Z 36011KT 9999 FEW030 BKN/// 17/05 Q1024

20240411_rjnt_12ja173b

JA173B← また南砺

20240411_rjnt_13ja81an

千歳便はRNP02

20240411_rjnt_14ja81an
20240411_rjnt_15ja81an
20240411_rjnt_16ja81an

ANA1182 RJCC-RJNT JA81AN B737-881

20240411_rjnt_17ja81an
20240411_rjnt_18ja6512

JA6512↓ AS350B3 AKF

20240411_rjnt_19ja173b

JA173B← 3度目の南砺

RJNT 110400Z 36010KT CAVOK 18/05 Q1024

20240411_rjnt_20ja81an
20240411_rjnt_21ja81an

JA1181 RJNT-RJCC JA81AN B737-881

20240411_rjnt_22ja139t

JA139T↑ AW139 富山県警察

20240411_rjnt_23ja139t

IFR訓練の様で、神通HPを飛び立って

20240411_rjnt_24ja139t

一旦滑走路に着陸。ここからIFRデパーチャー

20240411_rjnt_25ja139t
20240411_rjnt_26ja119w

JA119W↑ AW139 富山県消防防災

20240411_rjnt_27ja119w

つるぎさんが周回している間に出庫して、訓練に出発

20240411_rjnt_28ja6512

JA6512↑ 三連荘のヘリ出発

本日は、ここまで

|

« 定点 伏木・富山空港・東八尾 2024/4/7 sun | トップページ | 定点 富山空港他 2024/4/13 sat »

富山空港」カテゴリの記事

コメント

コメントを書く



(ウェブ上には掲載しません)


コメントは記事投稿者が公開するまで表示されません。



« 定点 伏木・富山空港・東八尾 2024/4/7 sun | トップページ | 定点 富山空港他 2024/4/13 sat »